Time;durP1;ratioP1;P1;durP2;ratioP2;P2;SDS_P1;SDS_P2;PMS_P1;PMS_P2;Temp;Humidity;BMP_temperature;BMP_pressure;BME280_temperature;BME280_humidity;BME280_pressure;Samples;Min_cycle;Max_cycle;Signal;HPM_P1;HPM_P2
2023/04/07 00:00:41;;;;;;;;;;;8.60;99.90;;;;;;5090394;28;19938;-72
2023/04/07 00:03:08;;;;;;;;;;;8.60;99.90;;;;;;5092628;28;19924;-72
2023/04/07 00:05:35;;;;;;;;;;;8.90;99.90;;;;;;5092173;28;19931;-71
2023/04/07 00:08:01;;;;;;;;;;;8.80;99.90;;;;;;5087697;28;19924;-71
2023/04/07 00:10:28;;;;;;;;;;;8.60;99.90;;;;;;5089893;28;19930;-71
2023/04/07 00:12:55;;;;;;;;;;;8.50;99.90;;;;;;5093802;28;20036;-71
2023/04/07 00:15:21;;;;;;;;;;;8.50;99.90;;;;;;5089460;28;20353;-71
2023/04/07 00:17:49;;;;;;;;;;;8.50;99.90;;;;;;5087290;28;20287;-71
2023/04/07 00:20:16;;;;;;;;;;;8.50;99.90;;;;;;5089469;28;19924;-71
2023/04/07 00:22:43;;;;;;;;;;;8.60;99.90;;;;;;5089819;28;19924;-72
2023/04/07 00:25:10;;;;;;;;;;;8.40;99.90;;;;;;5088116;28;20007;-72
2023/04/07 00:27:36;;;;;;;;;;;8.60;99.90;;;;;;5092196;28;19950;-71
2023/04/07 00:30:04;;;;;;;;;;;8.50;99.90;;;;;;5088973;28;19924;-71
2023/04/07 00:32:31;;;;;;;;;;;;;;;;;;5089658;28;19993;-71
2023/04/07 00:34:59;;;;;;;;;;;8.40;99.90;;;;;;5088325;28;19924;-72
2023/04/07 00:37:26;;;;;;;;;;;;;;;;;;5091030;28;19950;-71
2023/04/07 00:39:53;;;;;;;;;;;;;;;;;;5093398;28;20311;-72
2023/04/07 00:42:19;;;;;;;;;;;8.40;99.90;;;;;;5091729;28;20375;-72
2023/04/07 00:44:46;;;;;;;;;;;8.50;99.90;;;;;;5087635;28;20284;-72
2023/04/07 00:47:13;;;;;;;;;;;8.50;99.90;;;;;;5087913;28;19967;-72
2023/04/07 00:49:40;;;;;;;;;;;;;;;;;;5090259;28;19924;-72
2023/04/07 00:52:07;;;;;;;;;;;;;;;;;;5090323;28;19924;-71
2023/04/07 00:54:34;;;;;;;;;;;;;;;;;;5092190;28;19924;-71
2023/04/07 00:57:01;;;;;;;;;;;;;;;;;;5094080;28;20014;-72
2023/04/07 00:59:30;;;;;;;;;;;;;;;;;;5092611;28;19977;-72
2023/04/07 01:01:57;;;;;;;;;;;;;;;;;;5087451;28;19932;-72
2023/04/07 01:04:24;;;;;;;;;;;;;;;;;;5088978;28;19993;-72
2023/04/07 01:06:51;;;;;;;;;;;;;;;;;;5091755;28;20264;-72
2023/04/07 01:09:18;;;;;;;;;;;;;;;;;;5089642;28;20294;-72
2023/04/07 01:11:45;;;;;;;;;;;;;;;;;;5088881;28;19931;-72
2023/04/07 01:14:12;;;;;;;;;;;;;;;;;;5089652;28;19924;-71
2023/04/07 01:16:39;;;;;;;;;;;;;;;;;;5086450;28;20301;-72
2023/04/07 01:19:06;;;;;;;;;;;;;;;;;;5088091;28;20314;-70
2023/04/07 01:21:33;;;;;;;;;;;;;;;;;;5088791;28;20408;-72
2023/04/07 01:24:00;;;;;;;;;;;;;;;;;;5087599;28;20007;-72
2023/04/07 01:26:27;;;;;;;;;;;;;;;;;;5089483;28;19924;-72
2023/04/07 01:28:54;;;;;;;;;;;;;;;;;;5086213;28;19931;-69
2023/04/07 01:31:21;;;;;;;;;;;;;;;;;;5086923;28;19931;-71
2023/04/07 01:33:48;;;;;;;;;;;;;;;;;;5096684;28;19930;-73
2023/04/07 01:36:15;;;;;;;;;;;;;;;;;;5090309;28;20006;-72
2023/04/07 01:38:44;;;;;;;;;;;8.20;99.90;;;;;;5086502;28;19928;-72
2023/04/07 01:41:13;;;;;;;;;;;8.20;99.90;;;;;;5089367;28;19962;-72
2023/04/07 01:43:41;;;;;;;;;;;8.20;99.90;;;;;;5090597;28;19979;-72
2023/04/07 01:46:07;;;;;;;;;;;8.20;99.90;;;;;;5087957;28;20389;-71
2023/04/07 01:48:35;;;;;;;;;;;8.20;99.90;;;;;;5090914;28;19924;-68
2023/04/07 01:51:02;;;;;;;;;;;;;;;;;;5089083;28;19924;-69
2023/04/07 01:53:29;;;;;;;;;;;;;;;;;;5087673;28;19967;-73
2023/04/07 01:55:56;;;;;;;;;;;;;;;;;;5090777;28;20027;-73
2023/04/07 01:58:22;;;;;;;;;;;;;;;;;;5088755;28;19932;-73
2023/04/07 02:00:50;;;;;;;;;;;;;;;;;;5094018;28;19927;-73
2023/04/07 02:03:19;;;;;;;;;;;;;;;;;;5088277;28;19978;-74
2023/04/07 02:05:46;;;;;;;;;;;;;;;;;;5090161;28;19932;-72
2023/04/07 02:08:13;;;;;;;;;;;;;;;;;;5088017;28;20346;-73
2023/04/07 02:10:40;;;;;;;;;;;;;;;;;;5088910;28;20427;-73
2023/04/07 02:13:08;;;;;;;;;;;;;;;;;;5087842;28;19924;-74
2023/04/07 02:15:34;;;;;;;;;;;;;;;;;;5090569;28;19932;-73
2023/04/07 02:18:01;;;;;;;;;;;;;;;;;;5087885;28;19931;-73
2023/04/07 02:20:28;;;;;;;;;;;;;;;;;;5088901;28;19924;-73
2023/04/07 02:22:55;;;;;;;;;;;;;;;;;;5091461;28;19932;-73
2023/04/07 02:25:22;;;;;;;;;;;;;;;;;;5089976;28;19930;-73
2023/04/07 02:27:49;;;;;;;;;;;;;;;;;;5088299;28;19946;-73
2023/04/07 02:30:16;;;;;;;;;;;;;;;;;;5086825;28;19946;-73
2023/04/07 02:32:43;;;;;;;;;;;;;;;;;;5089628;28;20313;-73
2023/04/07 02:35:10;;;;;;;;;;;;;;;;;;5088590;28;20014;-74
2023/04/07 02:37:37;;;;;;;;;;;;;;;;;;5085048;28;20051;-73
2023/04/07 02:40:08;;;;;;;;;;;7.90;99.90;;;;;;5094175;28;19924;-74
2023/04/07 02:42:36;;;;;;;;;;;7.90;99.90;;;;;;5086451;28;20403;-74
2023/04/07 02:45:03;;;;;;;;;;;7.90;99.90;;;;;;5087534;28;19931;-74
2023/04/07 02:47:29;;;;;;;;;;;8.00;99.90;;;;;;5085327;28;22647;-73
2023/04/07 02:49:56;;;;;;;;;;;7.80;99.90;;;;;;5090425;28;19932;-73
2023/04/07 02:52:23;;;;;;;;;;;7.80;99.90;;;;;;5088565;28;20011;-73
2023/04/07 02:54:50;;;;;;;;;;;7.90;99.90;;;;;;5086044;28;19925;-72
2023/04/07 02:57:18;;;;;;;;;;;7.90;99.90;;;;;;5089138;28;19931;-73
2023/04/07 02:59:44;;;;;;;;;;;7.80;99.90;;;;;;5088732;28;19924;-71
2023/04/07 03:02:11;;;;;;;;;;;;;;;;;;5084777;28;19924;-70
2023/04/07 03:04:38;;;;;;;;;;;;;;;;;;5087437;28;20439;-73
2023/04/07 03:07:05;;;;;;;;;;;;;;;;;;5089125;28;19999;-73
2023/04/07 03:09:32;;;;;;;;;;;;;;;;;;5090104;28;19924;-74
2023/04/07 03:12:00;;;;;;;;;;;;;;;;;;5100653;28;19980;-73
2023/04/07 03:14:28;;;;;;;;;;;7.80;99.90;;;;;;5090567;28;20341;-73
2023/04/07 03:16:56;;;;;;;;;;;7.70;99.90;;;;;;5093042;28;19928;-73
2023/04/07 03:19:23;;;;;;;;;;;;;;;;;;5085336;28;20007;-73
2023/04/07 03:21:50;;;;;;;;;;;;;;;;;;5096876;28;20010;-73
2023/04/07 03:24:17;;;;;;;;;;;;;;;;;;5095487;28;20010;-73
2023/04/07 03:26:43;;;;;;;;;;;7.70;99.90;;;;;;5097309;28;19923;-73
2023/04/07 03:29:10;;;;;;;;;;;7.80;99.90;;;;;;5095128;28;20014;-73
2023/04/07 03:31:37;;;;;;;;;;;;;;;;;;5091272;28;20010;-73
2023/04/07 03:34:04;;;;;;;;;;;;;;;;;;5096906;28;19930;-73
2023/04/07 03:36:31;;;;;;;;;;;;;;;;;;5092449;28;20005;-74
2023/04/07 03:38:58;;;;;;;;;;;;;;;;;;5084416;28;19932;-74
2023/04/07 03:41:25;;;;;;;;;;;;;;;;;;5093075;28;19979;-74
2023/04/07 03:43:52;;;;;;;;;;;;;;;;;;5094021;28;20002;-74
2023/04/07 03:46:19;;;;;;;;;;;;;;;;;;5092691;28;19924;-74
2023/04/07 03:48:47;;;;;;;;;;;7.60;99.90;;;;;;5097885;28;19977;-74
2023/04/07 03:51:16;;;;;;;;;;;7.70;99.90;;;;;;5089303;28;20522;-74
2023/04/07 03:53:43;;;;;;;;;;;;;;;;;;5098079;28;19924;-72
2023/04/07 03:56:10;;;;;;;;;;;;;;;;;;5091440;28;19927;-72
2023/04/07 03:58:37;;;;;;;;;;;;;;;;;;5104917;28;19924;-73
2023/04/07 04:01:04;;;;;;;;;;;8.10;99.90;;;;;;5091789;28;19924;-74
2023/04/07 04:03:31;;;;;;;;;;;;;;;;;;5088739;28;19994;-77
2023/04/07 04:05:58;;;;;;;;;;;;;;;;;;5097676;28;19924;-73
2023/04/07 04:08:25;;;;;;;;;;;;;;;;;;5094979;28;20006;-73
2023/04/07 04:10:53;;;;;;;;;;;7.60;99.90;;;;;;5092709;28;19925;-73
2023/04/07 04:13:20;;;;;;;;;;;;;;;;;;5091501;28;19924;-74
2023/04/07 04:15:47;;;;;;;;;;;;;;;;;;5092694;28;19923;-73
2023/04/07 04:18:14;;;;;;;;;;;;;;;;;;5087700;28;19924;-73
2023/04/07 04:20:41;;;;;;;;;;;;;;;;;;5086207;28;19978;-73
2023/04/07 04:23:08;;;;;;;;;;;;;;;;;;5093908;28;19971;-71
2023/04/07 04:25:35;;;;;;;;;;;7.40;99.90;;;;;;5088046;28;19968;-73
2023/04/07 04:28:02;;;;;;;;;;;;;;;;;;5088538;28;19938;-74
2023/04/07 04:30:30;;;;;;;;;;;7.30;99.90;;;;;;5104200;28;19924;-73
2023/04/07 04:32:56;;;;;;;;;;;7.30;99.90;;;;;;5086512;28;19928;-73
2023/04/07 04:35:23;;;;;;;;;;;;;;;;;;5089133;28;19982;-73
2023/04/07 04:37:50;;;;;;;;;;;;;;;;;;5087842;28;19931;-72
2023/04/07 04:40:17;;;;;;;;;;;7.10;99.90;;;;;;5092330;28;20023;-73
2023/04/07 04:42:44;;;;;;;;;;;7.20;99.90;;;;;;5091833;28;20286;-74
2023/04/07 04:45:11;;;;;;;;;;;;;;;;;;5089231;28;19936;-74
2023/04/07 04:47:39;;;;;;;;;;;;;;;;;;5084735;28;19972;-73
2023/04/07 04:50:06;;;;;;;;;;;;;;;;;;5101506;28;19931;-74
2023/04/07 04:52:33;;;;;;;;;;;;;;;;;;5089306;28;19924;-74
2023/04/07 04:55:01;;;;;;;;;;;7.00;99.90;;;;;;5109417;28;19924;-74
2023/04/07 04:57:28;;;;;;;;;;;;;;;;;;5098569;28;19930;-74
2023/04/07 04:59:55;;;;;;;;;;;;;;;;;;5099132;28;19925;-74
2023/04/07 05:02:22;;;;;;;;;;;;;;;;;;5087798;28;19942;-73
2023/04/07 05:04:48;;;;;;;;;;;6.70;99.90;;;;;;5088987;28;20450;-74
2023/04/07 05:07:15;;;;;;;;;;;5.90;99.90;;;;;;5095440;28;20413;-74
2023/04/07 05:09:42;;;;;;;;;;;;;;;;;;5089900;28;19924;-74
2023/04/07 05:12:09;;;;;;;;;;;;;;;;;;5090881;28;19938;-73
2023/04/07 05:14:36;;;;;;;;;;;;;;;;;;5089450;28;19931;-73
2023/04/07 05:17:03;;;;;;;;;;;;;;;;;;5086331;28;19930;-71
2023/04/07 05:19:30;;;;;;;;;;;;;;;;;;5099455;28;19924;-74
2023/04/07 05:21:57;;;;;;;;;;;;;;;;;;5091251;28;20019;-74
2023/04/07 05:24:24;;;;;;;;;;;;;;;;;;5089988;28;19924;-73
2023/04/07 05:26:51;;;;;;;;;;;;;;;;;;5091232;28;20011;-74
2023/04/07 05:29:18;;;;;;;;;;;;;;;;;;5089046;28;19931;-74
2023/04/07 05:31:45;;;;;;;;;;;;;;;;;;5090485;28;19923;-74
2023/04/07 05:34:12;;;;;;;;;;;;;;;;;;5102027;28;19940;-72
2023/04/07 05:36:40;;;;;;;;;;;;;;;;;;5092591;28;19924;-75
2023/04/07 05:39:08;;;;;;;;;;;;;;;;;;5087895;28;19924;-75
2023/04/07 05:41:35;;;;;;;;;;;;;;;;;;5097810;28;19923;-74
2023/04/07 05:44:02;;;;;;;;;;;;;;;;;;5092542;28;19932;-74
2023/04/07 05:46:29;;;;;;;;;;;;;;;;;;5085512;28;19962;-73
2023/04/07 05:48:56;;;;;;;;;;;;;;;;;;5094306;28;19924;-74
2023/04/07 05:51:23;;;;;;;;;;;;;;;;;;5089111;28;19970;-72
2023/04/07 05:53:50;;;;;;;;;;;;;;;;;;5089781;28;20371;-74
2023/04/07 05:56:17;;;;;;;;;;;;;;;;;;5091529;28;19939;-74
2023/04/07 05:58:44;;;;;;;;;;;;;;;;;;5089757;28;20007;-71
2023/04/07 06:01:11;;;;;;;;;;;;;;;;;;5090193;28;19955;-72
2023/04/07 06:03:39;;;;;;;;;;;;;;;;;;5090875;28;19924;-73
2023/04/07 06:06:06;;;;;;;;;;;;;;;;;;5094910;28;19993;-74
2023/04/07 06:08:33;;;;;;;;;;;;;;;;;;5091716;28;20394;-74
2023/04/07 06:11:00;;;;;;;;;;;;;;;;;;5078950;28;19981;-74
2023/04/07 06:13:27;;;;;;;;;;;;;;;;;;5092598;28;20021;-75
2023/04/07 06:15:54;;;;;;;;;;;;;;;;;;5088433;28;19969;-77
2023/04/07 06:18:21;;;;;;;;;;;;;;;;;;5090593;28;20018;-73
2023/04/07 06:20:48;;;;;;;;;;;;;;;;;;5093710;28;19930;-74
2023/04/07 06:23:15;;;;;;;;;;;;;;;;;;5096190;28;19932;-74
2023/04/07 06:25:42;;;;;;;;;;;;;;;;;;5085990;28;19932;-73
2023/04/07 06:28:09;;;;;;;;;;;;;;;;;;5085339;28;20014;-74
2023/04/07 06:30:36;;;;;;;;;;;;;;;;;;5080637;28;19930;-73
2023/04/07 06:33:03;;;;;;;;;;;;;;;;;;5087669;28;19932;-73
2023/04/07 06:35:30;;;;;;;;;;;;;;;;;;5087768;28;20007;-74
2023/04/07 06:37:57;;;;;;;;;;;;;;;;;;5091041;28;19978;-76
2023/04/07 06:40:24;;;;;;;;;;;;;;;;;;5094632;28;19931;-77
2023/04/07 06:42:53;;;;;;;;;;;;;;;;;;5088531;28;19924;-78
2023/04/07 06:45:20;;;;;;;;;;;;;;;;;;5094769;28;19924;-78
2023/04/07 06:47:47;;;;;;;;;;;;;;;;;;5084818;28;19924;-77
2023/04/07 06:50:14;;;;;;;;;;;;;;;;;;5088947;28;20018;-76
2023/04/07 06:52:41;;;;;;;;;;;;;;;;;;5086186;28;19956;-76
2023/04/07 06:55:08;;;;;;;;;;;;;;;;;;5088133;28;19924;-75
2023/04/07 06:57:35;;;;;;;;;;;;;;;;;;5096321;28;19924;-74
2023/04/07 07:00:03;;;;;;;;;;;;;;;;;;5088300;28;19924;-73
2023/04/07 07:02:30;;;;;;;;;;;;;;;;;;5091511;28;19924;-74
2023/04/07 07:04:57;;;;;;;;;;;;;;;;;;5103673;28;19924;-74
2023/04/07 07:07:24;;;;;;;;;;;;;;;;;;5092283;28;20022;-74
2023/04/07 07:09:51;;;;;;;;;;;;;;;;;;5094609;28;19928;-73
2023/04/07 07:12:18;;;;;;;;;;;;;;;;;;5092305;28;19931;-74
2023/04/07 07:14:45;;;;;;;;;;;;;;;;;;5098912;28;19924;-75
2023/04/07 07:17:15;;;;;;;;;;;;;;;;;;5085653;28;19936;-76
2023/04/07 07:19:42;;;;;;;;;;;;;;;;;;5097568;28;19939;-75
2023/04/07 07:22:09;;;;;;;;;;;;;;;;;;5092272;28;19931;-76
2023/04/07 07:24:36;;;;;;;;;;;;;;;;;;5093105;28;19959;-75
2023/04/07 07:27:03;;;;;;;;;;;;;;;;;;5084752;28;19932;-76
2023/04/07 07:29:30;;;;;;;;;;;;;;;;;;5089687;28;19966;-75
2023/04/07 07:31:57;;;;;;;;;;;;;;;;;;5087324;28;19932;-75
2023/04/07 07:34:24;;;;;;;;;;;;;;;;;;5088754;28;19939;-76
2023/04/07 07:36:51;;;;;;;;;;;;;;;;;;5094218;28;19924;-78
2023/04/07 07:39:18;;;;;;;;;;;;;;;;;;5089207;28;20011;-74
2023/04/07 07:41:45;;;;;;;;;;;;;;;;;;5090276;28;20547;-75
2023/04/07 07:44:12;;;;;;;;;;;;;;;;;;5087866;28;19932;-77
2023/04/07 07:46:39;;;;;;;;;;;;;;;;;;5090453;28;20425;-76
2023/04/07 07:49:06;;;;;;;;;;;;;;;;;;5097326;28;19982;-73
2023/04/07 07:51:33;;;;;;;;;;;;;;;;;;5088855;28;19979;-75
2023/04/07 07:54:00;;;;;;;;;;;;;;;;;;5087938;28;20007;-73
2023/04/07 07:56:27;;;;;;;;;;;;;;;;;;5080047;28;19932;-73
2023/04/07 07:58:54;;;;;;;;;;;;;;;;;;5083188;28;19924;-73
2023/04/07 08:01:21;;;;;;;;;;;;;;;;;;5086576;28;19954;-76
2023/04/07 08:03:48;;;;;;;;;;;;;;;;;;5084429;28;19931;-74
2023/04/07 08:06:15;;;;;;;;;;;;;;;;;;5090982;28;20015;-72
2023/04/07 08:08:42;;;;;;;;;;;;;;;;;;5097050;28;20086;-74
2023/04/07 08:11:09;;;;;;;;;;;;;;;;;;5093295;28;20007;-74
2023/04/07 08:13:36;;;;;;;;;;;;;;;;;;5085025;28;20442;-73
2023/04/07 08:16:03;;;;;;;;;;;;;;;;;;5088290;28;20626;-71
2023/04/07 08:18:30;;;;;;;;;;;;;;;;;;5085271;28;20294;-72
2023/04/07 08:20:57;;;;;;;;;;;;;;;;;;5091757;28;20336;-75
2023/04/07 08:23:24;;;;;;;;;;;;;;;;;;5087396;28;19939;-75
2023/04/07 08:25:51;;;;;;;;;;;;;;;;;;5089955;28;20398;-75
2023/04/07 08:28:20;;;;;;;;;;;;;;;;;;5086099;28;19964;-74
2023/04/07 08:30:46;;;;;;;;;;;;;;;;;;5088703;28;19924;-74
2023/04/07 08:33:13;;;;;;;;;;;;;;;;;;5094917;28;19924;-74
2023/04/07 08:35:40;;;;;;;;;;;;;;;;;;5090455;28;20435;-74
2023/04/07 08:38:08;;;;;;;;;;;;;;;;;;5090259;28;20357;-72
2023/04/07 08:40:35;;;;;;;;;;;;;;;;;;5089267;28;19924;-74
2023/04/07 08:43:02;;;;;;;;;;;;;;;;;;5085727;28;20023;-73
2023/04/07 08:45:29;;;;;;;;;;;;;;;;;;5084253;28;19932;-74
2023/04/07 08:47:56;;;;;;;;;;;;;;;;;;5088982;28;19924;-74
2023/04/07 08:50:23;;;;;;;;;;;;;;;;;;5087004;28;19924;-75
2023/04/07 08:52:50;;;;;;;;;;;;;;;;;;5085832;28;20019;-71
2023/04/07 08:55:18;;;;;;;;;;;;;;;;;;5087849;28;19924;-71
2023/04/07 08:57:45;;;;;;;;;;;;;;;;;;5086853;28;19924;-73
2023/04/07 09:00:12;;;;;;;;;;;;;;;;;;5081085;28;19977;-74
2023/04/07 09:02:39;;;;;;;;;;;;;;;;;;5085616;28;19992;-70
2023/04/07 09:05:06;;;;;;;;;;;;;;;;;;5087181;28;20335;-70
2023/04/07 09:07:33;;;;;;;;;;;;;;;;;;5090407;28;20018;-69
2023/04/07 09:10:00;;;;;;;;;;;;;;;;;;5086965;28;20276;-71
2023/04/07 09:12:27;;;;;;;;;;;;;;;;;;5080630;28;19939;-71
2023/04/07 09:14:54;;;;;;;;;;;;;;;;;;5087826;28;20383;-70
2023/04/07 09:17:21;;;;;;;;;;;;;;;;;;5084697;28;20065;-70
2023/04/07 09:19:49;;;;;;;;;;;15.40;99.90;;;;;;5083866;28;19932;-69
2023/04/07 09:22:16;;;;;;;;;;;;;;;;;;5084225;28;19924;-69
2023/04/07 09:24:43;;;;;;;;;;;;;;;;;;5095374;28;19931;-69
2023/04/07 09:27:10;;;;;;;;;;;;;;;;;;5086961;28;20015;-70
2023/04/07 09:29:37;;;;;;;;;;;;;;;;;;5082426;28;19931;-69
2023/04/07 09:32:04;;;;;;;;;;;;;;;;;;5084706;28;19924;-69
2023/04/07 09:34:31;;;;;;;;;;;;;;;;;;5084329;28;20458;-69
2023/04/07 09:36:58;;;;;;;;;;;;;;;;;;5086976;28;20417;-69
2023/04/07 09:39:25;;;;;;;;;;;;;;;;;;5087992;28;20568;-68
2023/04/07 09:41:52;;;;;;;;;;;;;;;;;;5089388;28;19931;-69
2023/04/07 09:44:19;;;;;;;;;;;;;;;;;;5082921;28;20074;-68
2023/04/07 09:46:46;;;;;;;;;;;;;;;;;;5080913;28;19930;-69
2023/04/07 09:49:15;;;;;;;;;;;14.10;99.90;;;;;;5087991;28;19935;-69
2023/04/07 09:51:52;;;;;;;;;;;13.50;99.90;;;;;;5082086;28;20347;-70
2023/04/07 09:54:31;;;;;;;;;;;12.40;99.90;;;;;;5085110;28;19935;-71
2023/04/07 09:56:58;;;;;;;;;;;;;;;;;;5086315;28;20380;-70
2023/04/07 09:59:25;;;;;;;;;;;;;;;;;;5088208;28;19924;-69
2023/04/07 10:01:52;;;;;;;;;;;;;;;;;;5088616;28;20302;-70
2023/04/07 10:04:19;;;;;;;;;;;;;;;;;;5086534;28;20372;-69
2023/04/07 10:06:46;;;;;;;;;;;;;;;;;;5092660;28;20389;-70
2023/04/07 10:09:13;;;;;;;;;;;;;;;;;;5088919;28;19985;-70
2023/04/07 10:11:40;;;;;;;;;;;;;;;;;;5082347;28;20803;-70
2023/04/07 10:14:07;;;;;;;;;;;;;;;;;;5079650;28;19932;-70
2023/04/07 10:16:34;;;;;;;;;;;;;;;;;;5077509;28;19932;-70
2023/04/07 10:19:01;;;;;;;;;;;;;;;;;;5085427;28;19994;-71
2023/04/07 10:21:28;;;;;;;;;;;;;;;;;;5082806;28;20009;-70
2023/04/07 10:23:55;;;;;;;;;;;;;;;;;;5078329;28;19967;-69
2023/04/07 10:26:22;;;;;;;;;;;;;;;;;;5084667;28;19950;-70
2023/04/07 10:28:49;;;;;;;;;;;;;;;;;;5081910;28;19936;-70
2023/04/07 10:31:16;;;;;;;;;;;;;;;;;;5087806;28;19924;-69
2023/04/07 10:33:43;;;;;;;;;;;;;;;;;;5082299;28;20031;-69
2023/04/07 10:36:11;;;;;;;;;;;;;;;;;;5077588;28;20375;-68
2023/04/07 10:38:38;;;;;;;;;;;;;;;;;;5082820;28;19941;-70
2023/04/07 10:41:05;;;;;;;;;;;;;;;;;;5089465;28;19939;-70
2023/04/07 10:43:32;;;;;;;;;;;;;;;;;;5080742;28;19951;-67
2023/04/07 10:45:59;;;;;;;;;;;;;;;;;;5080730;28;20284;-70
2023/04/07 10:48:31;;;;;;;;;;;;;;;;;;5079688;28;19925;-71
2023/04/07 10:50:58;;;;;;;;;;;;;;;;;;5069723;28;20405;-70
2023/04/07 10:53:25;;;;;;;;;;;;;;;;;;5080589;28;19932;-69
2023/04/07 10:55:52;;;;;;;;;;;;;;;;;;5079386;28;19924;-70
2023/04/07 10:58:19;;;;;;;;;;;;;;;;;;5063932;28;20530;-71
2023/04/07 11:00:46;;;;;;;;;;;;;;;;;;5079782;28;19924;-71
2023/04/07 11:03:13;;;;;;;;;;;;;;;;;;5074504;28;19943;-70
2023/04/07 11:08:10;;;;;;;;;;;;;;;;;;5085431;22;19924;-70
2023/04/07 11:10:37;;;;;;;;;;;;;;;;;;5082913;28;20275;-69
2023/04/07 11:13:04;;;;;;;;;;;;;;;;;;5082202;28;19981;-71
2023/04/07 11:15:32;;;;;;;;;;;;;;;;;;5078000;28;19938;-69
2023/04/07 11:17:59;;;;;;;;;;;;;;;;;;5082138;28;20020;-69
2023/04/07 11:20:26;;;;;;;;;;;;;;;;;;5093801;28;19976;-69
2023/04/07 11:22:53;;;;;;;;;;;;;;;;;;5077135;28;20043;-71
2023/04/07 11:25:22;;;;;;;;;;;;;;;;;;5082539;28;19938;-70
2023/04/07 11:27:49;;;;;;;;;;;;;;;;;;5085390;28;19931;-71
2023/04/07 11:30:16;;;;;;;;;;;;;;;;;;5084170;28;20448;-71
2023/04/07 11:32:43;;;;;;;;;;;;;;;;;;5077028;28;20497;-71
2023/04/07 11:37:47;;;;;;;;;;;;;;;;;;5057420;22;19940;-69
2023/04/07 11:40:15;;;;;;;;;;;;;;;;;;5059832;28;19932;-70
2023/04/07 11:42:45;;;;;;;;;;;;;;;;;;5060132;28;19974;-71
2023/04/07 11:45:12;;;;;;;;;;;;;;;;;;5063729;28;19935;-70
2023/04/07 11:47:39;;;;;;;;;;;;;;;;;;5063449;28;20019;-71
2023/04/07 11:50:05;;;;;;;;;;;;;;;;;;5066670;28;19939;-72
2023/04/07 11:52:32;;;;;;;;;;;;;;;;;;5061115;28;20425;-71
2023/04/07 11:55:01;;;;;;;;;;;;;;;;;;5069594;28;20288;-71
2023/04/07 11:57:28;;;;;;;;;;;;;;;;;;5065437;28;19932;-70
2023/04/07 11:59:55;;;;;;;;;;;;;;;;;;5074652;22;20398;-70
2023/04/07 12:02:22;;;;;;;;;;;;;;;;;;5082739;28;19930;-71
2023/04/07 12:04:49;;;;;;;;;;;;;;;;;;5082311;28;20306;-70
2023/04/07 12:07:17;;;;;;;;;;;12.00;99.90;;;;;;5086956;28;19932;-70
2023/04/07 12:09:46;;;;;;;;;;;;;;;;;;5091804;22;20287;-69
2023/04/07 12:12:13;;;;;;;;;;;;;;;;;;5074679;28;20042;-72
2023/04/07 12:14:40;;;;;;;;;;;;;;;;;;5061432;28;19934;-71
2023/04/07 12:17:08;;;;;;;;;;;;;;;;;;5064221;28;19932;-71
2023/04/07 12:19:38;;;;;;;;;;;;;;;;;;5066789;28;19978;-69
2023/04/07 12:22:05;;;;;;;;;;;;;;;;;;5068704;28;20382;-71
2023/04/07 12:24:32;;;;;;;;;;;;;;;;;;5067015;28;19931;-71
2023/04/07 12:26:59;;;;;;;;;;;;;;;;;;5073530;28;19928;-71
2023/04/07 12:29:26;;;;;;;;;;;;;;;;;;5071071;28;19932;-72
2023/04/07 12:31:53;;;;;;;;;;;;;;;;;;5086333;22;19934;-71
2023/04/07 12:34:21;;;;;;;;;;;;;;;;;;5081354;28;20011;-72
2023/04/07 12:36:48;;;;;;;;;;;;;;;;;;5079798;28;19932;-69
2023/04/07 12:39:15;;;;;;;;;;;;;;;;;;5084339;28;20011;-71
2023/04/07 12:41:43;;;;;;;;;;;;;;;;;;5080633;28;19985;-70
2023/04/07 12:44:10;;;;;;;;;;;;;;;;;;5082622;28;20023;-70
2023/04/07 12:46:37;;;;;;;;;;;;;;;;;;5086327;28;20200;-70
2023/04/07 12:49:04;;;;;;;;;;;;;;;;;;5080443;28;19960;-72
2023/04/07 12:51:32;;;;;;;;;;;;;;;;;;5080598;28;19931;-72
2023/04/07 12:53:59;;;;;;;;;;;;;;;;;;5084824;28;19936;-70
2023/04/07 12:56:26;;;;;;;;;;;;;;;;;;5082025;28;19928;-72
2023/04/07 12:58:54;;;;;;;;;;;10.80;99.90;;;;;;5088725;28;19924;-72
2023/04/07 13:01:21;;;;;;;;;;;;;;;;;;5081559;28;20019;-70
2023/04/07 13:03:48;;;;;;;;;;;;;;;;;;5086008;28;19928;-69
2023/04/07 13:06:16;;;;;;;;;;;;;;;;;;5082627;28;19930;-70
2023/04/07 13:08:45;;;;;;;;;;;;;;;;;;5084905;28;20387;-70
2023/04/07 13:11:12;;;;;;;;;;;;;;;;;;5086113;28;19932;-71
2023/04/07 13:13:39;;;;;;;;;;;;;;;;;;5089720;28;20043;-71
2023/04/07 13:16:06;;;;;;;;;;;;;;;;;;5080754;28;19958;-72
2023/04/07 13:18:33;;;;;;;;;;;;;;;;;;5084384;28;19931;-70
2023/04/07 13:21:01;;;;;;;;;;;11.40;99.90;;;;;;5079762;28;19967;-71
2023/04/07 13:23:28;;;;;;;;;;;;;;;;;;5088105;28;19931;-71
2023/04/07 13:25:55;;;;;;;;;;;;;;;;;;5083875;28;19928;-71
2023/04/07 13:28:22;;;;;;;;;;;;;;;;;;5076350;28;19955;-71
2023/04/07 13:30:49;;;;;;;;;;;;;;;;;;5089200;28;19936;-70
2023/04/07 13:33:16;;;;;;;;;;;;;;;;;;5091162;28;20393;-70
2023/04/07 13:35:43;;;;;;;;;;;11.30;99.90;;;;;;5079648;28;19955;-71
2023/04/07 13:38:11;;;;;;;;;;;11.40;99.90;;;;;;5084663;28;20016;-72
2023/04/07 13:40:38;;;;;;;;;;;11.10;99.90;;;;;;5088506;28;19931;-69
2023/04/07 13:43:06;;;;;;;;;;;10.80;99.90;;;;;;5083876;28;19930;-69
2023/04/07 13:45:33;;;;;;;;;;;;;;;;;;5083315;28;19924;-71
2023/04/07 13:48:00;;;;;;;;;;;;;;;;;;5074366;28;19964;-72
2023/04/07 13:50:27;;;;;;;;;;;;;;;;;;5081461;28;19978;-71
2023/04/07 13:52:55;;;;;;;;;;;;;;;;;;5079395;28;20046;-71
2023/04/07 13:55:22;;;;;;;;;;;;;;;;;;5079979;28;19928;-70
2023/04/07 13:57:49;;;;;;;;;;;;;;;;;;5077553;28;19938;-72
2023/04/07 14:00:16;;;;;;;;;;;;;;;;;;5081945;28;19935;-72
2023/04/07 14:02:44;;;;;;;;;;;;;;;;;;5082457;28;19934;-71
2023/04/07 14:05:11;;;;;;;;;;;;;;;;;;5067294;28;19931;-74
2023/04/07 14:07:38;;;;;;;;;;;;;;;;;;5082197;28;19929;-73
2023/04/07 14:10:07;;;;;;;;;;;10.20;99.90;;;;;;5079101;28;19934;-77
2023/04/07 14:12:34;;;;;;;;;;;;;;;;;;5081958;28;19924;-77
2023/04/07 14:15:03;;;;;;;;;;;;;;;;;;5077050;28;20317;-78
2023/04/07 14:17:30;;;;;;;;;;;;;;;;;;5078489;28;20055;-78
2023/04/07 14:19:58;;;;;;;;;;;;;;;;;;5078033;28;20402;-77
2023/04/07 14:22:25;;;;;;;;;;;;;;;;;;5076292;28;20521;-77
2023/04/07 14:24:54;;;;;;;;;;;;;;;;;;5078939;28;20390;-77
2023/04/07 14:27:23;;;;;;;;;;;;;;;;;;5089585;28;19935;-76
2023/04/07 14:29:50;;;;;;;;;;;;;;;;;;5093898;28;19938;-73
2023/04/07 14:32:17;;;;;;;;;;;;;;;;;;5089789;28;19924;-76
2023/04/07 14:34:45;;;;;;;;;;;11.10;99.90;;;;;;5084835;28;19924;-75
2023/04/07 14:37:12;;;;;;;;;;;11.70;99.90;;;;;;5088391;28;20010;-69
2023/04/07 14:39:39;;;;;;;;;;;11.90;99.90;;;;;;5083890;28;20010;-71
2023/04/07 14:42:07;;;;;;;;;;;11.70;99.90;;;;;;5087123;28;19924;-70
2023/04/07 14:44:33;;;;;;;;;;;11.70;99.90;;;;;;5073961;28;19932;-72
2023/04/07 14:47:00;;;;;;;;;;;;;;;;;;5083303;28;20026;-72
2023/04/07 14:49:28;;;;;;;;;;;11.00;99.90;;;;;;5088841;28;19973;-69
2023/04/07 14:51:56;;;;;;;;;;;11.30;99.90;;;;;;5094450;28;19923;-72
2023/04/07 14:54:23;;;;;;;;;;;11.00;99.90;;;;;;5082649;28;22028;-72
2023/04/07 14:56:50;;;;;;;;;;;;;;;;;;5084181;28;19924;-72
2023/04/07 14:59:17;;;;;;;;;;;11.30;99.90;;;;;;5090569;28;19932;-71
2023/04/07 15:01:44;;;;;;;;;;;;;;;;;;5106982;22;19977;-71
2023/04/07 15:04:10;;;;;;;;;;;11.00;99.90;;;;;;5105534;28;20026;-71
2023/04/07 15:06:37;;;;;;;;;;;;;;;;;;5105295;28;19927;-71
2023/04/07 15:09:04;;;;;;;;;;;;;;;;;;5105326;28;19930;-71
2023/04/07 15:11:51;;;;;;;;;;;10.60;99.90;;;;;;5103687;28;19976;-73
2023/04/07 15:14:18;;;;;;;;;;;;;;;;;;5095757;28;19932;-72
2023/04/07 15:16:49;;;;;;;;;;;10.90;99.90;;;;;;5106736;28;19923;-71
2023/04/07 15:19:16;;;;;;;;;;;10.90;99.90;;;;;;5103809;28;19938;-70
2023/04/07 15:21:42;;;;;;;;;;;11.10;99.90;;;;;;5106141;28;19924;-71
2023/04/07 15:24:09;;;;;;;;;;;11.10;99.90;;;;;;5108953;28;19923;-72
2023/04/07 15:26:36;;;;;;;;;;;11.20;99.90;;;;;;5105826;28;19930;-71
2023/04/07 15:29:02;;;;;;;;;;;11.40;99.90;;;;;;5106097;28;19928;-70
2023/04/07 15:31:29;;;;;;;;;;;11.40;99.90;;;;;;5106235;28;20035;-70
2023/04/07 15:33:57;;;;;;;;;;;11.20;99.90;;;;;;5108776;28;19984;-70
2023/04/07 15:36:24;;;;;;;;;;;11.00;99.90;;;;;;5104853;28;20749;-69
2023/04/07 15:38:51;;;;;;;;;;;11.00;99.90;;;;;;5108853;28;20001;-67
2023/04/07 15:41:18;;;;;;;;;;;10.90;99.90;;;;;;5108182;28;20024;-68
2023/04/07 15:43:44;;;;;;;;;;;10.90;99.90;;;;;;5104050;28;19960;-67
2023/04/07 15:46:13;;;;;;;;;;;10.70;99.90;;;;;;5109280;28;20055;-66
2023/04/07 15:48:40;;;;;;;;;;;10.70;99.90;;;;;;5108418;28;19931;-65
2023/04/07 15:51:08;;;;;;;;;;;10.40;99.90;;;;;;5105677;27;20007;-70
2023/04/07 15:53:34;;;;;;;;;;;10.10;99.90;;;;;;5109597;28;19924;-70
2023/04/07 15:56:01;;;;;;;;;;;10.00;99.90;;;;;;5094851;28;20022;-71
2023/04/07 15:58:28;;;;;;;;;;;9.90;99.90;;;;;;5100436;28;19938;-71
2023/04/07 16:00:54;;;;;;;;;;;10.20;99.90;;;;;;5099178;27;19931;-71
2023/04/07 16:03:21;;;;;;;;;;;10.30;99.90;;;;;;5097446;27;20031;-70
2023/04/07 16:05:49;;;;;;;;;;;10.40;99.90;;;;;;5101695;28;19971;-70
2023/04/07 16:08:17;;;;;;;;;;;10.40;99.90;;;;;;5099125;27;19923;-71
2023/04/07 16:10:44;;;;;;;;;;;10.40;99.90;;;;;;5107580;28;19934;-71